createdAt,value
2023-03-22T00:01:37.717Z,10.90
2023-03-22T00:04:04.672Z,11.00
2023-03-22T00:06:31.466Z,11.00
2023-03-22T00:08:58.207Z,11.00
2023-03-22T00:11:25.998Z,11.00
2023-03-22T00:13:53.655Z,11.10
2023-03-22T00:16:21.768Z,11.10
2023-03-22T00:18:48.652Z,11.10
2023-03-22T00:21:16.702Z,11.10
2023-03-22T00:23:44.327Z,11.10
2023-03-22T00:26:12.581Z,11.10
2023-03-22T00:28:39.836Z,11.10
2023-03-22T00:31:07.108Z,11.10
2023-03-22T00:33:34.064Z,11.10
2023-03-22T00:36:04.677Z,11.00
2023-03-22T00:38:42.404Z,11.00
2023-03-22T00:41:12.796Z,11.00
2023-03-22T00:43:39.609Z,11.00
2023-03-22T00:46:06.830Z,11.00
2023-03-22T00:48:33.755Z,10.90
2023-03-22T00:51:01.004Z,10.80
2023-03-22T00:53:29.154Z,10.80
2023-03-22T00:55:59.331Z,10.80
2023-03-22T00:58:26.074Z,10.70
2023-03-22T01:00:52.922Z,10.70
2023-03-22T01:03:21.920Z,10.70
2023-03-22T01:05:49.456Z,10.60
2023-03-22T01:08:17.898Z,10.70
2023-03-22T01:10:45.344Z,10.60
2023-03-22T01:13:12.880Z,10.60
2023-03-22T01:15:39.939Z,10.60
2023-03-22T01:18:07.622Z,10.60
2023-03-22T01:20:35.594Z,10.60
2023-03-22T01:23:02.421Z,10.60
2023-03-22T01:25:29.253Z,10.50
2023-03-22T01:27:56.032Z,10.50
2023-03-22T01:30:22.690Z,10.50
2023-03-22T01:32:49.570Z,10.40
2023-03-22T01:35:16.519Z,10.40
2023-03-22T01:37:43.317Z,10.30
2023-03-22T01:40:12.422Z,10.30
2023-03-22T01:42:39.355Z,10.30
2023-03-22T01:45:14.882Z,10.30
2023-03-22T01:47:56.005Z,10.20
2023-03-22T01:50:24.424Z,10.30
2023-03-22T01:52:52.156Z,10.20
2023-03-22T01:55:23.343Z,10.20
2023-03-22T01:57:51.545Z,10.20
2023-03-22T02:00:19.020Z,10.20
2023-03-22T02:02:49.203Z,10.20
2023-03-22T02:05:17.286Z,10.10
2023-03-22T02:07:44.816Z,10.00
2023-03-22T02:10:17.574Z,10.00
2023-03-22T02:12:58.409Z,9.90
2023-03-22T02:15:51.162Z,9.90
2023-03-22T02:18:27.054Z,9.90
2023-03-22T02:21:11.910Z,9.90
2023-03-22T02:23:50.526Z,9.80
2023-03-22T02:26:39.393Z,9.80
2023-03-22T02:29:17.818Z,9.90
2023-03-22T02:32:16.500Z,9.80
2023-03-22T02:34:46.321Z,9.70
2023-03-22T02:37:28.417Z,9.70
2023-03-22T02:40:13.896Z,9.80
2023-03-22T02:43:02.106Z,9.90
2023-03-22T02:45:50.630Z,9.80
2023-03-22T02:48:26.513Z,9.60
2023-03-22T02:51:00.403Z,9.60
2023-03-22T02:53:36.399Z,9.60
2023-03-22T02:56:13.450Z,9.70
2023-03-22T02:58:46.753Z,9.70
2023-03-22T03:01:29.111Z,9.70
2023-03-22T03:04:04.783Z,9.60
2023-03-22T03:06:35.823Z,9.70
2023-03-22T03:09:05.227Z,9.70
2023-03-22T03:11:32.572Z,9.70
2023-03-22T03:13:59.624Z,9.60
2023-03-22T03:16:29.400Z,9.70
2023-03-22T03:19:41.113Z,9.80
2023-03-22T03:22:33.442Z,9.60
2023-03-22T03:25:05.977Z,9.50
2023-03-22T03:27:40.679Z,9.50
2023-03-22T03:30:15.479Z,9.50
2023-03-22T03:32:56.450Z,9.30
2023-03-22T03:35:32.443Z,9.30
2023-03-22T03:38:21.291Z,9.30
2023-03-22T03:40:52.642Z,9.20
2023-03-22T03:43:20.713Z,9.10
2023-03-22T03:45:47.671Z,9.30
2023-03-22T03:48:24.114Z,9.20
2023-03-22T03:50:54.084Z,9.10
2023-03-22T03:53:20.860Z,9.00
2023-03-22T03:55:47.618Z,9.00
2023-03-22T03:58:16.178Z,9.10
2023-03-22T04:00:43.775Z,9.00
2023-03-22T04:03:10.626Z,9.10
2023-03-22T04:05:37.615Z,9.20
2023-03-22T04:08:04.402Z,9.20
2023-03-22T04:10:31.371Z,9.20
2023-03-22T04:12:58.097Z,9.30
2023-03-22T04:15:25.277Z,9.30
2023-03-22T04:17:54.080Z,9.20
2023-03-22T04:20:21.022Z,9.20
2023-03-22T04:22:49.082Z,9.20
2023-03-22T04:25:18.219Z,9.10
2023-03-22T04:27:50.933Z,9.10
2023-03-22T04:30:20.136Z,9.10
2023-03-22T04:32:48.876Z,9.10
2023-03-22T04:35:16.113Z,9.20
2023-03-22T04:37:43.281Z,9.20
2023-03-22T04:40:16.369Z,9.10
2023-03-22T04:42:44.262Z,9.10
2023-03-22T04:45:12.302Z,9.10
2023-03-22T04:47:39.172Z,9.10
2023-03-22T04:50:07.532Z,9.00
2023-03-22T04:52:34.251Z,9.00
2023-03-22T04:55:00.905Z,9.00
2023-03-22T04:57:27.664Z,9.00
2023-03-22T04:59:54.339Z,9.00
2023-03-22T05:02:21.207Z,8.90
2023-03-22T05:04:47.966Z,8.60
2023-03-22T05:07:14.685Z,8.60
2023-03-22T05:09:41.467Z,8.70
2023-03-22T05:12:08.191Z,8.80
2023-03-22T05:14:34.998Z,8.80
2023-03-22T05:17:01.840Z,8.70
2023-03-22T05:19:29.008Z,8.70
2023-03-22T05:21:58.613Z,8.60
2023-03-22T05:24:25.586Z,8.60
2023-03-22T05:26:53.957Z,8.60
2023-03-22T05:29:24.363Z,8.70
2023-03-22T05:31:51.178Z,8.50
2023-03-22T05:34:17.947Z,8.50
2023-03-22T05:36:44.773Z,8.50
2023-03-22T05:39:11.743Z,8.40
2023-03-22T05:41:38.426Z,8.50
2023-03-22T05:44:05.316Z,8.40
2023-03-22T05:46:32.103Z,8.30
2023-03-22T05:48:58.844Z,8.20
2023-03-22T05:51:25.640Z,8.10
2023-03-22T05:53:53.576Z,8.20
2023-03-22T05:56:24.403Z,8.10
2023-03-22T05:58:51.878Z,8.10
2023-03-22T06:01:20.461Z,8.10
2023-03-22T06:03:48.511Z,8.10
2023-03-22T06:06:15.878Z,8.10
2023-03-22T06:08:43.047Z,8.10
2023-03-22T06:11:10.687Z,8.10
2023-03-22T06:13:37.743Z,8.10
2023-03-22T06:16:05.580Z,8.10
2023-03-22T06:18:33.209Z,8.20
2023-03-22T06:21:00.523Z,8.30
2023-03-22T06:23:28.005Z,8.40
2023-03-22T06:25:54.919Z,8.50
2023-03-22T06:28:21.784Z,8.50
2023-03-22T06:30:48.599Z,8.70
2023-03-22T06:33:15.370Z,8.70
2023-03-22T06:35:42.191Z,8.80
2023-03-22T06:38:09.399Z,8.80
2023-03-22T06:40:36.151Z,8.90
2023-03-22T06:43:06.764Z,8.80
2023-03-22T06:45:33.871Z,8.90
2023-03-22T06:48:01.318Z,8.90
2023-03-22T06:50:29.245Z,9.00
2023-03-22T06:52:56.605Z,9.00
2023-03-22T06:55:24.096Z,9.00
2023-03-22T06:57:50.801Z,9.10
2023-03-22T07:00:17.970Z,9.20
2023-03-22T07:02:44.744Z,9.20
2023-03-22T07:05:11.568Z,9.20
2023-03-22T07:07:38.379Z,9.20
2023-03-22T07:10:07.771Z,9.30
2023-03-22T07:12:35.108Z,9.20
2023-03-22T07:15:02.588Z,9.30
2023-03-22T07:17:29.460Z,9.50
2023-03-22T07:19:56.464Z,9.40
2023-03-22T07:22:24.846Z,9.40
2023-03-22T07:24:57.673Z,9.50
2023-03-22T07:27:25.892Z,9.40
2023-03-22T07:29:52.710Z,9.40
2023-03-22T07:32:19.541Z,9.50
2023-03-22T07:34:46.421Z,9.60
2023-03-22T07:37:13.222Z,9.60
2023-03-22T07:39:40.150Z,9.70
2023-03-22T07:42:06.954Z,9.80
2023-03-22T07:44:33.736Z,9.90
2023-03-22T07:47:00.734Z,10.00
2023-03-22T07:49:27.575Z,10.00
2023-03-22T07:51:54.285Z,10.10
2023-03-22T07:54:33.076Z,10.20
2023-03-22T07:57:01.294Z,10.20
2023-03-22T07:59:28.188Z,10.30
2023-03-22T08:01:55.134Z,10.40
2023-03-22T08:04:22.552Z,10.50
2023-03-22T08:06:51.863Z,10.60
2023-03-22T08:09:18.633Z,10.70
2023-03-22T08:11:45.755Z,10.80
2023-03-22T08:14:12.450Z,10.80
2023-03-22T08:16:39.325Z,11.00
2023-03-22T08:19:06.709Z,11.10
2023-03-22T08:21:33.382Z,11.20
2023-03-22T08:24:00.037Z,11.30
2023-03-22T08:26:27.360Z,11.40
2023-03-22T08:28:54.101Z,11.40
2023-03-22T08:31:20.940Z,11.50
2023-03-22T08:33:48.018Z,11.60
2023-03-22T08:36:18.349Z,11.70
2023-03-22T08:38:45.413Z,11.80
2023-03-22T08:41:13.114Z,11.90
2023-03-22T08:43:39.978Z,11.90
2023-03-22T08:46:06.746Z,12.00
2023-03-22T08:48:35.779Z,12.10
2023-03-22T08:51:02.619Z,12.10
2023-03-22T08:53:29.599Z,12.20
2023-03-22T08:55:58.162Z,12.20
2023-03-22T08:58:24.992Z,12.20
2023-03-22T09:00:52.030Z,12.20
2023-03-22T09:03:18.917Z,12.30
2023-03-22T09:05:45.740Z,12.40
2023-03-22T09:08:19.151Z,12.50
2023-03-22T09:10:52.028Z,12.60
2023-03-22T09:13:19.273Z,12.70
2023-03-22T09:15:46.335Z,12.80
2023-03-22T09:18:13.621Z,13.00
2023-03-22T09:20:40.744Z,13.10
2023-03-22T09:23:07.738Z,13.10
2023-03-22T09:25:34.459Z,13.20
2023-03-22T09:28:01.391Z,13.30
2023-03-22T09:30:28.668Z,13.30
2023-03-22T09:32:55.606Z,13.30
2023-03-22T09:35:22.651Z,13.30
2023-03-22T09:37:49.575Z,13.40
2023-03-22T09:40:17.739Z,13.50
2023-03-22T09:42:48.024Z,13.60
2023-03-22T09:45:25.014Z,13.60
2023-03-22T09:47:54.826Z,13.70
2023-03-22T09:50:26.108Z,13.90
2023-03-22T09:52:53.719Z,13.90
2023-03-22T09:55:22.107Z,14.00
2023-03-22T09:58:01.166Z,14.00
2023-03-22T10:00:52.750Z,14.10
2023-03-22T10:03:19.538Z,14.20
2023-03-22T10:06:07.496Z,14.30
2023-03-22T10:08:52.934Z,14.50
2023-03-22T10:11:37.278Z,14.60
2023-03-22T10:14:18.948Z,14.80
2023-03-22T10:16:46.799Z,14.90
2023-03-22T10:19:20.827Z,14.90
2023-03-22T10:21:49.736Z,14.90
2023-03-22T10:24:26.476Z,15.00
2023-03-22T10:26:53.814Z,15.20
2023-03-22T10:29:23.480Z,15.30
2023-03-22T10:31:50.255Z,15.40
2023-03-22T10:34:28.028Z,15.50
2023-03-22T10:36:55.774Z,15.60
2023-03-22T10:39:33.624Z,15.60
2023-03-22T10:42:08.331Z,15.70
2023-03-22T10:44:48.597Z,15.90
2023-03-22T10:47:24.105Z,16.00
2023-03-22T10:49:55.083Z,16.10
2023-03-22T10:52:36.973Z,16.20
2023-03-22T10:55:08.719Z,16.30
2023-03-22T10:57:35.436Z,16.40
2023-03-22T11:00:09.733Z,16.50
2023-03-22T11:02:47.009Z,16.40
2023-03-22T11:05:24.219Z,16.30
2023-03-22T11:07:51.273Z,16.40
2023-03-22T11:10:27.582Z,16.50
2023-03-22T11:13:07.939Z,16.60
2023-03-22T11:15:38.883Z,16.50
2023-03-22T11:18:11.322Z,16.50
2023-03-22T11:20:42.008Z,16.50
2023-03-22T11:23:17.824Z,16.50
2023-03-22T11:25:48.076Z,16.60
2023-03-22T11:28:37.194Z,16.80
2023-03-22T11:31:08.557Z,16.90
2023-03-22T11:33:36.426Z,17.10
2023-03-22T11:36:16.055Z,17.20
2023-03-22T11:38:48.773Z,17.30
2023-03-22T11:41:28.162Z,17.30
2023-03-22T11:44:08.003Z,17.40
2023-03-22T11:46:36.379Z,17.60
2023-03-22T11:49:08.078Z,17.80
2023-03-22T11:51:37.779Z,17.80
2023-03-22T11:54:42.414Z,18.10
2023-03-22T11:57:19.243Z,18.30
2023-03-22T12:00:01.800Z,18.40
2023-03-22T12:02:32.534Z,18.40
2023-03-22T12:05:10.641Z,18.30
2023-03-22T12:07:41.268Z,18.40
2023-03-22T12:10:30.987Z,18.40
2023-03-22T12:13:03.353Z,18.60
2023-03-22T12:15:41.031Z,18.70
2023-03-22T12:18:27.530Z,18.80
2023-03-22T12:20:59.698Z,18.80
2023-03-22T12:23:29.537Z,18.90
2023-03-22T12:26:11.583Z,18.90
2023-03-22T12:28:43.322Z,18.90
2023-03-22T12:31:19.573Z,19.10
2023-03-22T12:33:53.400Z,19.30
2023-03-22T12:36:42.943Z,19.40
2023-03-22T12:39:27.755Z,19.30
2023-03-22T12:42:02.401Z,19.30
2023-03-22T12:44:42.320Z,19.30
2023-03-22T12:47:34.837Z,19.20
2023-03-22T12:50:18.348Z,19.20
2023-03-22T12:52:50.663Z,19.30
2023-03-22T12:55:32.236Z,19.30
2023-03-22T12:57:59.676Z,19.50
2023-03-22T13:00:44.213Z,19.60
2023-03-22T13:03:19.966Z,19.60
2023-03-22T13:05:50.333Z,19.80
2023-03-22T13:08:21.893Z,19.90
2023-03-22T13:10:59.537Z,19.90
2023-03-22T13:13:27.701Z,20.00
2023-03-22T13:15:59.674Z,19.90
2023-03-22T13:18:49.909Z,20.00
2023-03-22T13:21:22.338Z,20.00
2023-03-22T13:24:10.314Z,20.00
2023-03-22T13:26:47.815Z,20.20
2023-03-22T13:29:34.315Z,20.20
2023-03-22T13:32:04.452Z,20.30
2023-03-22T13:34:37.578Z,20.30
2023-03-22T13:37:22.728Z,20.40
2023-03-22T13:39:54.157Z,20.40
2023-03-22T13:42:26.641Z,20.60
2023-03-22T13:45:02.491Z,20.50
2023-03-22T13:47:45.390Z,20.40
2023-03-22T13:50:31.470Z,20.20
2023-03-22T13:53:07.624Z,20.00
2023-03-22T13:55:41.544Z,20.00
2023-03-22T13:58:36.187Z,20.10
2023-03-22T14:01:13.553Z,20.20
2023-03-22T14:03:45.576Z,20.10
2023-03-22T14:06:18.946Z,20.10
2023-03-22T14:08:48.456Z,20.10
2023-03-22T14:11:23.817Z,20.10
2023-03-22T14:13:56.235Z,20.20
2023-03-22T14:16:38.104Z,20.20
2023-03-22T14:19:07.141Z,20.30
2023-03-22T14:21:39.821Z,20.30
